createdAt,value
2023-02-09T00:00:26.848Z,3.9
2023-02-09T00:01:33.374Z,3.7
2023-02-09T00:02:40.532Z,3.7
2023-02-09T00:03:47.684Z,3.7
2023-02-09T00:04:54.750Z,3.7
2023-02-09T00:06:01.853Z,3.7
2023-02-09T00:07:08.773Z,3.7
2023-02-09T00:08:15.523Z,3.8
2023-02-09T00:09:22.613Z,3.8
2023-02-09T00:10:29.764Z,3.9
2023-02-09T00:11:36.870Z,3.9
2023-02-09T00:12:43.412Z,3.9
2023-02-09T00:13:50.509Z,4
2023-02-09T00:14:57.642Z,4
2023-02-09T00:16:04.866Z,4.1
2023-02-09T00:17:11.837Z,4.1
2023-02-09T00:18:18.423Z,4.1
2023-02-09T00:19:25.500Z,4.1
2023-02-09T00:20:32.651Z,4.1
2023-02-09T00:21:39.775Z,4.1
2023-02-09T00:22:46.340Z,4.2
2023-02-09T00:23:53.397Z,4.2
2023-02-09T00:25:00.552Z,4.2
2023-02-09T00:26:07.711Z,4.3
2023-02-09T00:27:14.717Z,4.3
2023-02-09T00:29:28.442Z,4.4
2023-02-09T00:31:42.655Z,4.5
2023-02-09T00:32:49.930Z,4.5
2023-02-09T00:33:56.328Z,4.6
2023-02-09T00:35:03.416Z,4.6
2023-02-09T00:36:10.564Z,4.7
2023-02-09T00:37:17.673Z,4.7
2023-02-09T00:38:24.748Z,4.7
2023-02-09T00:39:31.908Z,4.7
2023-02-09T00:40:38.442Z,4.7
2023-02-09T00:41:45.519Z,4.7
2023-02-09T00:42:52.723Z,4.7
2023-02-09T00:43:59.854Z,4.6
2023-02-09T00:45:06.859Z,4.5
2023-02-09T00:46:13.519Z,4.3
2023-02-09T00:47:20.584Z,4.3
2023-02-09T00:48:27.660Z,4.3
2023-02-09T00:49:34.780Z,4.3
2023-02-09T00:50:41.378Z,4.3
2023-02-09T00:51:48.547Z,4.3
2023-02-09T00:52:55.603Z,4.3
2023-02-09T00:54:02.628Z,4.3
2023-02-09T00:55:09.786Z,4.3
2023-02-09T00:56:16.407Z,4.3
2023-02-09T00:57:23.453Z,4.3
2023-02-09T00:58:30.543Z,4.3
2023-02-09T00:59:37.705Z,4.3
2023-02-09T01:00:45.126Z,4.3
2023-02-09T01:01:51.382Z,4.3
2023-02-09T01:02:58.557Z,4.3
2023-02-09T01:04:05.534Z,4.3
2023-02-09T01:05:12.670Z,4.3
2023-02-09T01:06:19.794Z,4.3
2023-02-09T01:07:26.954Z,4.3
2023-02-09T01:08:33.440Z,4.3
2023-02-09T01:09:40.618Z,4.3
2023-02-09T01:10:47.817Z,4.3
2023-02-09T01:11:54.764Z,4.3
2023-02-09T01:13:01.390Z,4.3
2023-02-09T01:14:08.448Z,4.3
2023-02-09T01:15:15.579Z,4.3
2023-02-09T01:16:22.736Z,4.3
2023-02-09T01:17:29.824Z,4.4
2023-02-09T01:18:36.399Z,4.4
2023-02-09T01:19:43.471Z,4.4
2023-02-09T01:20:50.693Z,4.4
2023-02-09T01:21:57.701Z,4.3
2023-02-09T01:23:04.771Z,4.3
2023-02-09T01:24:11.352Z,4.2
2023-02-09T01:25:18.493Z,4.1
2023-02-09T01:26:25.600Z,4.1
2023-02-09T01:27:32.794Z,4.1
2023-02-09T01:28:39.796Z,4.1
2023-02-09T01:29:46.396Z,4
2023-02-09T01:30:53.588Z,4
2023-02-09T01:33:07.726Z,3.9
2023-02-09T01:34:14.800Z,3.9
2023-02-09T01:35:21.371Z,3.9
2023-02-09T01:36:28.518Z,4
2023-02-09T01:37:35.632Z,4
2023-02-09T01:38:42.699Z,4.1
2023-02-09T01:39:49.861Z,4.1
2023-02-09T01:40:56.414Z,4.1
2023-02-09T01:42:03.488Z,4.1
2023-02-09T01:43:10.689Z,4.2
2023-02-09T01:44:17.761Z,4.2
2023-02-09T01:45:24.816Z,4.2
2023-02-09T01:46:31.476Z,4.3
2023-02-09T01:47:38.605Z,4.3
2023-02-09T01:48:45.592Z,4.3
2023-02-09T01:49:52.725Z,4.3
2023-02-09T01:51:00.341Z,4.3
2023-02-09T01:52:06.481Z,4.3
2023-02-09T01:53:13.560Z,4.4
2023-02-09T01:54:20.671Z,4.4
2023-02-09T01:55:27.748Z,4.5
2023-02-09T01:56:34.847Z,4.5
2023-02-09T01:57:41.614Z,4.5
2023-02-09T01:59:55.623Z,4.4
2023-02-09T02:01:02.762Z,4.3
2023-02-09T02:02:09.900Z,4.3
2023-02-09T02:03:16.532Z,4.3
2023-02-09T02:04:23.549Z,4.3
2023-02-09T02:05:30.701Z,4.2
2023-02-09T02:06:37.781Z,4.1
2023-02-09T02:07:44.322Z,4.1
2023-02-09T02:08:51.448Z,4.1
2023-02-09T02:09:58.667Z,4.1
2023-02-09T02:11:05.702Z,4.1
2023-02-09T02:12:12.764Z,4.2
2023-02-09T02:13:19.422Z,4.2
2023-02-09T02:14:26.489Z,4.3
2023-02-09T02:15:33.583Z,4.3
2023-02-09T02:16:40.706Z,4.3
2023-02-09T02:17:47.828Z,4.4
2023-02-09T02:18:54.337Z,4.4
2023-02-09T02:20:01.546Z,4.4
2023-02-09T02:21:08.555Z,4.5
2023-02-09T02:22:15.644Z,4.5
2023-02-09T02:23:22.767Z,4.5
2023-02-09T02:24:29.373Z,4.5
2023-02-09T02:25:36.488Z,4.5
2023-02-09T02:26:43.575Z,4.5
2023-02-09T02:27:50.840Z,4.6
2023-02-09T02:28:57.809Z,4.6
2023-02-09T02:30:04.392Z,4.7
2023-02-09T02:31:11.693Z,4.7
2023-02-09T02:32:18.603Z,4.7
2023-02-09T02:33:25.713Z,4.7
2023-02-09T02:34:32.766Z,4.7
2023-02-09T02:36:46.476Z,4.7
2023-02-09T02:37:53.648Z,4.7
2023-02-09T02:39:00.721Z,4.8
2023-02-09T02:40:07.821Z,4.8
2023-02-09T02:41:14.364Z,4.9
2023-02-09T02:42:21.494Z,4.9
2023-02-09T02:43:28.603Z,4.9
2023-02-09T02:44:35.684Z,4.9
2023-02-09T02:45:42.811Z,5
2023-02-09T02:46:49.415Z,5
2023-02-09T02:47:56.524Z,5
2023-02-09T02:49:03.607Z,5.1
2023-02-09T02:50:10.719Z,5.1
2023-02-09T02:51:17.819Z,5.1
2023-02-09T02:52:24.443Z,5.1
2023-02-09T02:53:31.533Z,5
2023-02-09T02:54:38.634Z,4.9
2023-02-09T02:55:45.714Z,4.9
2023-02-09T02:56:52.891Z,4.9
2023-02-09T02:57:59.528Z,4.8
2023-02-09T02:59:06.533Z,4.8
2023-02-09T03:00:13.615Z,4.7
2023-02-09T03:01:20.822Z,4.7
2023-02-09T03:02:27.914Z,4.5
2023-02-09T03:03:34.392Z,4.5
2023-02-09T03:04:41.551Z,4.4
2023-02-09T03:05:48.653Z,4.3
2023-02-09T03:06:55.737Z,4.3
2023-02-09T03:08:02.810Z,4.3
2023-02-09T03:09:09.481Z,4.3
2023-02-09T03:10:16.553Z,4.3
2023-02-09T03:11:23.610Z,4.3
2023-02-09T03:12:30.803Z,4.3
2023-02-09T03:13:37.375Z,4.3
2023-02-09T03:13:37.850Z,4.3
2023-02-09T03:14:44.454Z,4.3
2023-02-09T03:15:51.668Z,4.3
2023-02-09T03:16:58.649Z,4.3
2023-02-09T03:18:05.742Z,4.3
2023-02-09T03:19:12.830Z,4.4
2023-02-09T03:20:19.446Z,4.4
2023-02-09T03:21:26.564Z,4.4
2023-02-09T03:22:33.719Z,4.4
2023-02-09T03:23:40.791Z,4.4
2023-02-09T03:24:47.910Z,4.3
2023-02-09T03:25:54.431Z,4.4
2023-02-09T03:28:08.815Z,4.4
2023-02-09T03:29:15.770Z,4.4
2023-02-09T03:30:22.877Z,4.4
2023-02-09T03:31:29.578Z,4.4
2023-02-09T03:32:36.601Z,4.5
2023-02-09T03:33:43.727Z,4.5
2023-02-09T03:34:50.810Z,4.5
2023-02-09T03:35:57.937Z,4.6
2023-02-09T03:37:04.484Z,4.6
2023-02-09T03:38:11.644Z,4.7
2023-02-09T03:40:25.811Z,4.7
2023-02-09T03:41:32.915Z,4.7
2023-02-09T03:42:39.468Z,4.8
2023-02-09T03:43:46.584Z,4.8
2023-02-09T03:44:53.671Z,4.8
2023-02-09T03:46:00.796Z,4.8
2023-02-09T03:47:08.863Z,4.8
2023-02-09T03:48:14.518Z,4.8
2023-02-09T03:49:21.591Z,4.8
2023-02-09T03:50:28.678Z,4.7
2023-02-09T03:51:35.767Z,4.8
2023-02-09T03:52:42.344Z,4.8
2023-02-09T03:53:49.538Z,4.7
2023-02-09T03:54:56.634Z,4.7
2023-02-09T03:56:03.675Z,4.7
2023-02-09T03:57:10.862Z,4.8
2023-02-09T03:58:17.439Z,4.7
2023-02-09T03:59:24.508Z,4.7
2023-02-09T04:00:31.660Z,4.7
2023-02-09T04:01:38.723Z,4.7
2023-02-09T04:02:45.917Z,4.7
2023-02-09T04:03:52.965Z,4.6
2023-02-09T04:04:59.506Z,4.6
2023-02-09T04:06:06.634Z,4.6
2023-02-09T04:07:13.697Z,4.6
2023-02-09T04:08:20.881Z,4.6
2023-02-09T04:09:27.412Z,4.6
2023-02-09T04:10:34.584Z,4.6
2023-02-09T04:11:41.650Z,4.6
2023-02-09T04:12:48.764Z,4.6
2023-02-09T04:13:55.848Z,4.6
2023-02-09T04:15:02.928Z,4.6
2023-02-09T04:16:09.594Z,4.6
2023-02-09T04:17:16.678Z,4.6
2023-02-09T04:18:23.693Z,4.6
2023-02-09T04:19:30.847Z,4.6
2023-02-09T04:20:37.474Z,4.6
2023-02-09T04:21:44.488Z,4.6
2023-02-09T04:22:51.667Z,4.6
2023-02-09T04:23:58.770Z,4.7
2023-02-09T04:25:05.830Z,4.7
2023-02-09T04:26:12.430Z,4.7
2023-02-09T04:27:19.556Z,4.8
2023-02-09T04:28:26.702Z,4.8
2023-02-09T04:29:33.749Z,4.8
2023-02-09T04:30:40.966Z,4.8
2023-02-09T04:31:47.502Z,4.9
2023-02-09T04:32:54.598Z,4.9
2023-02-09T04:34:01.652Z,5
2023-02-09T04:35:08.757Z,5
2023-02-09T04:36:15.849Z,5
2023-02-09T04:37:22.439Z,5.1
2023-02-09T04:38:29.575Z,5.1
2023-02-09T04:39:36.686Z,5.1
2023-02-09T04:40:44.105Z,5.1
2023-02-09T04:41:50.882Z,5.1
2023-02-09T04:44:04.593Z,5.1
2023-02-09T04:45:11.666Z,5.1
2023-02-09T04:46:18.854Z,5.1
2023-02-09T04:47:25.894Z,5.1
2023-02-09T04:48:32.472Z,5.1
2023-02-09T04:49:39.573Z,5.1
2023-02-09T04:50:47.090Z,5.1
2023-02-09T04:51:53.741Z,5.1
2023-02-09T04:53:00.888Z,5.2
2023-02-09T04:54:07.491Z,5.2
2023-02-09T04:56:21.683Z,5.2
2023-02-09T04:57:28.853Z,5.2
2023-02-09T04:58:35.952Z,5.2
2023-02-09T04:59:42.464Z,5.2
2023-02-09T05:00:49.583Z,5.2
2023-02-09T05:01:56.723Z,5.2
2023-02-09T05:03:03.782Z,5.2
2023-02-09T05:04:10.940Z,5
2023-02-09T05:05:17.541Z,4.9
2023-02-09T05:06:24.583Z,4.7
2023-02-09T05:07:31.732Z,4.5
2023-02-09T05:08:38.884Z,4.3
2023-02-09T05:09:45.912Z,4.1
2023-02-09T05:10:52.491Z,3.8
2023-02-09T05:11:59.607Z,3.6
2023-02-09T05:13:06.704Z,3.4
2023-02-09T05:14:13.858Z,3.3
2023-02-09T05:15:20.945Z,3.1
2023-02-09T05:16:27.553Z,3.1
2023-02-09T05:17:34.566Z,3.1
2023-02-09T05:18:41.788Z,3.1
2023-02-09T05:19:48.899Z,3.1
2023-02-09T05:20:55.974Z,3.1
2023-02-09T05:22:02.511Z,3.1
2023-02-09T05:23:09.753Z,3.1
2023-02-09T05:24:16.721Z,3.1
2023-02-09T05:25:23.792Z,3.1
2023-02-09T05:26:30.966Z,3.2
2023-02-09T05:27:37.557Z,3.2
2023-02-09T05:28:44.626Z,3.3
2023-02-09T05:29:51.720Z,3.3
2023-02-09T05:30:58.938Z,3.3
2023-02-09T05:32:06.043Z,3.3
2023-02-09T05:33:12.544Z,3.3
2023-02-09T05:34:19.654Z,3.4
2023-02-09T05:35:26.236Z,3.4
2023-02-09T05:36:33.860Z,3.5
2023-02-09T05:37:40.395Z,3.5
2023-02-09T05:38:47.552Z,3.6
2023-02-09T05:39:54.652Z,3.7
2023-02-09T05:41:01.772Z,3.7
2023-02-09T05:42:08.895Z,3.8
2023-02-09T05:43:15.500Z,3.9
2023-02-09T05:44:22.534Z,3.9
2023-02-09T05:45:29.682Z,4
2023-02-09T05:47:43.881Z,4.1
2023-02-09T05:48:50.490Z,4.2
2023-02-09T05:49:57.554Z,4.3
2023-02-09T05:51:04.631Z,4.3
2023-02-09T05:52:11.755Z,4.3
2023-02-09T05:53:18.931Z,4.3
2023-02-09T05:54:25.443Z,4.3
2023-02-09T05:55:32.521Z,4.3
2023-02-09T05:56:39.691Z,4.3
2023-02-09T05:57:46.777Z,4.3
2023-02-09T05:58:53.834Z,4.3
2023-02-09T06:00:00.544Z,4.3
2023-02-09T06:01:07.581Z,4.3
2023-02-09T06:02:14.686Z,4.3
2023-02-09T06:03:21.830Z,4.3
2023-02-09T06:04:28.898Z,4.3
2023-02-09T06:05:36.525Z,4.3
2023-02-09T06:06:42.553Z,4.3
2023-02-09T06:07:49.739Z,4.3
2023-02-09T06:08:56.767Z,4.3
2023-02-09T06:10:03.878Z,4.3
2023-02-09T06:11:10.483Z,4.3
2023-02-09T06:12:17.614Z,4.3
2023-02-09T06:13:24.674Z,4.3
2023-02-09T06:14:31.786Z,4.3
2023-02-09T06:15:38.868Z,4.3
2023-02-09T06:16:45.488Z,4.3
2023-02-09T06:17:52.625Z,4.3
2023-02-09T06:18:59.679Z,4.3
2023-02-09T06:20:06.834Z,4.3
2023-02-09T06:21:13.889Z,4.3
2023-02-09T06:22:20.510Z,4.3
2023-02-09T06:23:27.619Z,4.4
2023-02-09T06:24:34.686Z,4.4
2023-02-09T06:25:41.761Z,4.4
2023-02-09T06:26:48.924Z,4.5
2023-02-09T06:27:55.574Z,4.5
2023-02-09T06:29:02.578Z,4.5
2023-02-09T06:30:09.738Z,4.5
2023-02-09T06:31:16.992Z,4.6
2023-02-09T06:32:23.922Z,4.6
2023-02-09T06:33:30.549Z,4.7
2023-02-09T06:34:37.621Z,4.7
2023-02-09T06:35:44.701Z,4.7
2023-02-09T06:36:51.852Z,4.8
2023-02-09T06:37:58.994Z,4.8
2023-02-09T06:39:05.474Z,4.7
2023-02-09T06:40:12.614Z,4.6
2023-02-09T06:41:19.729Z,4.5
2023-02-09T06:42:29.016Z,4.5
2023-02-09T06:43:33.890Z,4.4
2023-02-09T06:44:40.551Z,4.4
2023-02-09T06:45:47.628Z,4.3
2023-02-09T06:46:54.739Z,4.3
2023-02-09T06:48:01.931Z,4.3
2023-02-09T06:49:08.941Z,4.4
2023-02-09T06:51:22.605Z,4.4
2023-02-09T06:52:29.764Z,4.5
2023-02-09T06:53:36.914Z,4.5
2023-02-09T06:54:45.171Z,4.5
2023-02-09T06:55:50.538Z,4.5
2023-02-09T06:56:57.640Z,4.6
2023-02-09T06:58:04.274Z,4.6
2023-02-09T06:59:11.857Z,4.6
2023-02-09T07:01:25.600Z,4.7
2023-02-09T07:02:32.694Z,4.7
2023-02-09T07:03:39.841Z,4.7
2023-02-09T07:04:46.853Z,4.7
2023-02-09T07:05:53.940Z,4.7
2023-02-09T07:07:00.538Z,4.8
2023-02-09T07:08:07.652Z,4.8
2023-02-09T07:09:15.298Z,4.8
2023-02-09T07:10:21.917Z,4.9
2023-02-09T07:11:28.468Z,4.9
2023-02-09T07:12:35.560Z,4.9
2023-02-09T07:13:42.748Z,4.9
2023-02-09T07:14:49.780Z,4.9
2023-02-09T07:15:57.021Z,4.9
2023-02-09T07:17:03.461Z,4.9
2023-02-09T07:18:10.634Z,5
2023-02-09T07:19:17.694Z,5
2023-02-09T07:20:24.741Z,5
2023-02-09T07:21:31.388Z,5
2023-02-09T07:21:31.891Z,5
2023-02-09T07:22:38.522Z,5.1
2023-02-09T07:23:45.659Z,5.1
2023-02-09T07:24:52.774Z,5.2
2023-02-09T07:25:59.818Z,5.2
2023-02-09T07:27:08.873Z,5.3
2023-02-09T07:28:13.497Z,5.2
2023-02-09T07:29:20.577Z,5.3
2023-02-09T07:30:27.827Z,5.3
2023-02-09T07:31:34.948Z,5.3
2023-02-09T07:32:41.910Z,5.3
2023-02-09T07:33:48.513Z,5.3
2023-02-09T07:34:55.547Z,5.4
2023-02-09T07:36:02.704Z,5.3
2023-02-09T07:37:09.840Z,5.3
2023-02-09T07:38:16.904Z,5.3
2023-02-09T07:39:23.479Z,5.3
2023-02-09T07:39:23.512Z,5.3
2023-02-09T07:40:30.613Z,5.3
2023-02-09T07:41:37.732Z,5.3
2023-02-09T07:42:44.804Z,5.3
2023-02-09T07:43:51.980Z,5.3
2023-02-09T07:44:58.492Z,5.2
2023-02-09T07:46:05.569Z,5.2
2023-02-09T07:47:12.673Z,5.2
2023-02-09T07:48:19.872Z,5.2
2023-02-09T07:49:26.942Z,5.3
2023-02-09T07:50:33.517Z,5.3
2023-02-09T07:51:40.623Z,5.3
2023-02-09T07:52:47.713Z,5.3
2023-02-09T07:55:01.980Z,5.4
2023-02-09T07:56:08.510Z,5.4
2023-02-09T07:57:15.615Z,5.4
2023-02-09T07:58:22.817Z,5.4
2023-02-09T07:59:29.845Z,5.4
2023-02-09T08:00:36.924Z,5.4
2023-02-09T08:01:43.585Z,5.4
2023-02-09T08:02:50.672Z,5.4
2023-02-09T08:03:57.719Z,5.3
2023-02-09T08:05:04.889Z,5.3
2023-02-09T08:06:11.932Z,5.3
2023-02-09T08:07:18.554Z,5.3
2023-02-09T08:08:25.669Z,5.3
2023-02-09T08:09:32.724Z,5.4
2023-02-09T08:10:39.857Z,5.4
2023-02-09T08:11:47.003Z,5.4
2023-02-09T08:12:54.608Z,5.4
2023-02-09T08:14:00.604Z,5.4
2023-02-09T08:15:07.768Z,5.4
2023-02-09T08:16:14.850Z,5.5
2023-02-09T08:17:21.977Z,5.5
2023-02-09T08:18:28.654Z,5.5
2023-02-09T08:19:35.600Z,5.5
2023-02-09T08:20:42.745Z,5.5
2023-02-09T08:21:49.863Z,5.5
2023-02-09T08:22:57.000Z,5.5
2023-02-09T08:24:04.185Z,5.5
2023-02-09T08:25:10.666Z,5.4
2023-02-09T08:26:17.790Z,5.4
2023-02-09T08:27:24.868Z,5.4
2023-02-09T08:29:38.590Z,5.3
2023-02-09T08:30:45.765Z,5.3
2023-02-09T08:31:52.824Z,5.3
2023-02-09T08:32:59.906Z,5.3
2023-02-09T08:34:06.468Z,5.3
2023-02-09T08:35:13.559Z,5.1
2023-02-09T08:36:20.690Z,5.1
2023-02-09T08:37:27.800Z,4.9
2023-02-09T08:38:34.950Z,4.9
2023-02-09T08:39:41.490Z,4.9
2023-02-09T08:40:48.571Z,4.9
2023-02-09T08:41:55.656Z,4.9
2023-02-09T08:43:02.744Z,4.9
2023-02-09T08:44:09.875Z,4.9
2023-02-09T08:45:16.496Z,4.9
2023-02-09T08:46:23.679Z,4.9
2023-02-09T08:47:30.736Z,4.9
2023-02-09T08:48:37.839Z,4.9
2023-02-09T08:49:44.905Z,4.9
2023-02-09T08:50:51.580Z,5
2023-02-09T08:51:58.626Z,5
2023-02-09T08:53:05.684Z,5
2023-02-09T08:54:12.769Z,5
2023-02-09T08:55:19.952Z,5
2023-02-09T08:56:26.532Z,5.1
2023-02-09T08:58:40.805Z,5.1
2023-02-09T08:59:47.859Z,5.1
2023-02-09T09:00:54.924Z,5
2023-02-09T09:02:01.674Z,4.8
2023-02-09T09:03:08.663Z,4.7
2023-02-09T09:04:15.718Z,4.7
2023-02-09T09:05:22.833Z,4.7
2023-02-09T09:06:29.939Z,4.7
2023-02-09T09:07:36.542Z,4.8
2023-02-09T09:08:43.592Z,4.8
2023-02-09T09:09:50.771Z,4.9
2023-02-09T09:10:57.856Z,4.9
2023-02-09T09:12:04.933Z,4.9
2023-02-09T09:13:11.593Z,4.9
2023-02-09T09:14:18.676Z,4.9
2023-02-09T09:15:25.740Z,4.9
2023-02-09T09:16:33.349Z,4.9
2023-02-09T09:17:39.932Z,4.9
2023-02-09T09:18:46.554Z,5
2023-02-09T09:19:53.607Z,5
2023-02-09T09:21:00.740Z,5
2023-02-09T09:22:07.835Z,5
2023-02-09T09:23:15.149Z,5
2023-02-09T09:24:21.583Z,5.1
2023-02-09T09:25:28.632Z,5
2023-02-09T09:26:35.736Z,5.1
2023-02-09T09:27:42.817Z,5.1
2023-02-09T09:28:49.965Z,5.1
2023-02-09T09:29:56.594Z,5.2
2023-02-09T09:31:03.642Z,5.2
2023-02-09T09:32:10.982Z,5.3
2023-02-09T09:33:18.051Z,5.3
2023-02-09T09:34:24.956Z,5.4
2023-02-09T09:35:31.576Z,5.4
2023-02-09T09:36:38.648Z,5.4
2023-02-09T09:37:45.764Z,5.5
2023-02-09T09:38:52.831Z,5.6
2023-02-09T09:39:59.987Z,5.6
2023-02-09T09:41:06.602Z,5.7
2023-02-09T09:42:13.655Z,5.7
2023-02-09T09:43:20.836Z,5.8
2023-02-09T09:44:27.876Z,5.8
2023-02-09T09:45:34.938Z,5.8
2023-02-09T09:46:41.559Z,5.8
2023-02-09T09:47:48.700Z,5.8
2023-02-09T09:48:55.750Z,5.9
2023-02-09T09:50:02.886Z,6
2023-02-09T09:51:09.979Z,6
2023-02-09T09:52:16.556Z,6
2023-02-09T09:53:23.742Z,6
2023-02-09T09:54:30.830Z,6.1
2023-02-09T09:55:37.946Z,6.1
2023-02-09T09:57:51.597Z,6.2
2023-02-09T09:58:58.735Z,6.1
2023-02-09T10:00:05.801Z,6
2023-02-09T10:02:20.008Z,5.8
2023-02-09T10:03:26.656Z,5.8
2023-02-09T10:04:33.732Z,5.8
2023-02-09T10:05:40.917Z,5.8
2023-02-09T10:06:47.914Z,5.8
2023-02-09T10:07:54.484Z,5.8
2023-02-09T10:09:01.621Z,5.7
2023-02-09T10:10:08.737Z,5.8
2023-02-09T10:11:15.897Z,5.8
2023-02-09T10:12:22.945Z,5.8
2023-02-09T10:13:30.108Z,5.8
2023-02-09T10:14:36.596Z,5.8
2023-02-09T10:15:45.805Z,5.8
2023-02-09T10:16:50.950Z,5.8
2023-02-09T10:17:57.915Z,5.6
2023-02-09T10:19:04.566Z,5.6
2023-02-09T10:20:12.692Z,5.4
2023-02-09T10:21:18.725Z,5.4
2023-02-09T10:22:26.002Z,5.4
2023-02-09T10:23:32.977Z,5.4
2023-02-09T10:24:39.594Z,5.4
2023-02-09T10:25:46.990Z,5.4
2023-02-09T10:26:53.930Z,5.5
2023-02-09T10:28:00.876Z,5.6
2023-02-09T10:29:08.004Z,5.7
2023-02-09T10:30:14.470Z,5.7
2023-02-09T10:31:21.741Z,5.8
2023-02-09T10:32:28.808Z,5.8
2023-02-09T10:33:35.829Z,5.8
2023-02-09T10:34:43.004Z,5.9
2023-02-09T10:35:49.597Z,6
2023-02-09T10:36:56.656Z,6
2023-02-09T10:38:03.739Z,6
2023-02-09T10:39:10.945Z,6
2023-02-09T10:40:18.039Z,6
2023-02-09T10:41:24.539Z,6.1
2023-02-09T10:42:31.661Z,6.1
2023-02-09T10:43:38.770Z,6.1
2023-02-09T10:44:46.595Z,6.1
2023-02-09T10:45:52.988Z,6.2
2023-02-09T10:46:59.555Z,6.2
2023-02-09T10:48:06.638Z,6.3
2023-02-09T10:49:13.709Z,6.3
2023-02-09T10:50:20.885Z,6.3
2023-02-09T10:51:28.052Z,6.3
2023-02-09T10:52:34.560Z,6.3
2023-02-09T10:53:41.734Z,6.3
2023-02-09T10:54:48.758Z,6.3
2023-02-09T10:55:55.883Z,6.3
2023-02-09T10:57:02.491Z,6.3
2023-02-09T10:58:09.605Z,6.3
2023-02-09T10:59:16.763Z,6.3
2023-02-09T11:00:23.777Z,6.3
2023-02-09T11:01:30.928Z,6.4
2023-02-09T11:02:38.113Z,6.4
2023-02-09T11:03:44.553Z,6.4
2023-02-09T11:05:58.266Z,6.4
2023-02-09T11:07:05.874Z,6.4
2023-02-09T11:08:12.980Z,6.4
2023-02-09T11:09:19.564Z,6.4
2023-02-09T11:10:26.740Z,6.4
2023-02-09T11:11:33.798Z,6.4
2023-02-09T11:12:40.891Z,6.3
2023-02-09T11:13:48.040Z,6.3
2023-02-09T11:14:54.577Z,6.3
2023-02-09T11:16:01.707Z,6.2
2023-02-09T11:17:08.799Z,6.1
2023-02-09T11:18:15.953Z,6.1
2023-02-09T11:19:22.975Z,6.1
2023-02-09T11:20:29.611Z,6.1
2023-02-09T11:21:36.679Z,6.1
2023-02-09T11:22:43.774Z,6.1
2023-02-09T11:23:51.488Z,6.1
2023-02-09T11:26:04.586Z,6.2
2023-02-09T11:27:11.743Z,6.2
2023-02-09T11:28:18.893Z,6.2
2023-02-09T11:29:25.936Z,6.2
2023-02-09T11:30:33.025Z,6.2
2023-02-09T11:31:39.691Z,6.1
2023-02-09T11:32:46.697Z,6.1
2023-02-09T11:33:53.840Z,6.1
2023-02-09T11:35:00.933Z,6.1
2023-02-09T11:36:07.493Z,6.1
2023-02-09T11:37:14.570Z,6.1
2023-02-09T11:38:21.733Z,6.1
2023-02-09T11:39:28.843Z,6.2
2023-02-09T11:40:35.935Z,6.2
2023-02-09T11:41:42.495Z,6.2
2023-02-09T11:42:49.640Z,6.2
2023-02-09T11:43:56.794Z,6.2
2023-02-09T11:45:03.803Z,6.2
2023-02-09T11:46:11.077Z,6.2
2023-02-09T11:47:17.516Z,6.1
2023-02-09T11:48:24.615Z,6.1
2023-02-09T11:49:31.817Z,6.1
2023-02-09T11:50:38.873Z,6.1
2023-02-09T11:51:45.935Z,6.1
2023-02-09T11:52:52.499Z,6.2
2023-02-09T11:53:59.697Z,6.2
2023-02-09T11:55:06.828Z,6.2
2023-02-09T11:56:13.858Z,6.2
2023-02-09T11:57:20.947Z,6.2
2023-02-09T11:58:27.633Z,6.2
2023-02-09T11:59:34.631Z,6.2
2023-02-09T12:00:52.623Z,6.2
2023-02-09T12:01:48.881Z,6.2
2023-02-09T12:02:55.991Z,6.2
2023-02-09T12:04:02.548Z,6.2
2023-02-09T12:05:09.643Z,6.2
2023-02-09T12:06:16.910Z,6.2
2023-02-09T12:07:23.843Z,6.1
2023-02-09T12:09:37.791Z,6.1
2023-02-09T12:10:44.957Z,6.1
2023-02-09T12:11:51.804Z,6.1
2023-02-09T12:12:58.864Z,6.1
2023-02-09T12:14:05.948Z,6.1
2023-02-09T12:15:12.562Z,6.1
2023-02-09T12:16:19.758Z,6.1
2023-02-09T12:17:26.874Z,6.1
2023-02-09T12:18:33.879Z,6.1
2023-02-09T12:19:41.014Z,6.1
2023-02-09T12:20:47.779Z,6.1
2023-02-09T12:21:54.688Z,6.2
2023-02-09T12:23:01.892Z,6.2
2023-02-09T12:24:08.873Z,6.2
2023-02-09T12:25:16.080Z,6.3
2023-02-09T12:26:22.558Z,6.3
2023-02-09T12:27:30.213Z,6.3
2023-02-09T12:28:36.804Z,6.3
2023-02-09T12:29:43.844Z,6.3
2023-02-09T12:30:51.045Z,6.3
2023-02-09T12:31:57.677Z,6.4
2023-02-09T12:33:04.647Z,6.4
2023-02-09T12:34:11.857Z,6.4
2023-02-09T12:35:18.860Z,6.4
2023-02-09T12:36:25.450Z,6.5
2023-02-09T12:37:32.573Z,6.5
2023-02-09T12:38:39.688Z,6.5
2023-02-09T12:39:46.813Z,6.5
2023-02-09T12:40:53.970Z,6.5
2023-02-09T12:42:00.498Z,6.5
2023-02-09T12:43:07.638Z,6.5
2023-02-09T12:44:14.695Z,6.5
2023-02-09T12:45:21.819Z,6.5
2023-02-09T12:46:29.033Z,6.6
2023-02-09T12:47:35.450Z,6.5
2023-02-09T12:48:42.627Z,6.5
2023-02-09T12:49:49.734Z,6.5
2023-02-09T12:50:56.854Z,6.5
2023-02-09T12:52:03.911Z,6.4
2023-02-09T12:54:17.602Z,6.4
2023-02-09T12:55:24.698Z,6.4
2023-02-09T12:56:31.923Z,6.4
2023-02-09T12:57:38.890Z,6.4
2023-02-09T12:58:45.608Z,6.4
2023-02-09T12:59:52.657Z,6.5
2023-02-09T13:00:59.750Z,6.3
2023-02-09T13:02:06.823Z,6.2
2023-02-09T13:03:13.905Z,6.1
2023-02-09T13:04:20.613Z,5.9
2023-02-09T13:05:27.660Z,5.7
2023-02-09T13:06:34.711Z,5.6
2023-02-09T13:07:41.857Z,5.6
2023-02-09T13:08:48.970Z,5.6
2023-02-09T13:09:55.504Z,5.5
2023-02-09T13:11:02.596Z,5.6
2023-02-09T13:13:16.985Z,5.6
2023-02-09T13:14:23.952Z,5.7
2023-02-09T13:15:30.586Z,5.8
2023-02-09T13:16:37.742Z,5.8
2023-02-09T13:17:44.750Z,5.9
2023-02-09T13:18:51.908Z,6
2023-02-09T13:19:58.983Z,6
2023-02-09T13:21:05.501Z,6.1
2023-02-09T13:22:12.635Z,6.1
2023-02-09T13:23:19.796Z,6.1
2023-02-09T13:24:26.865Z,6.1
2023-02-09T13:25:33.930Z,6.1
2023-02-09T13:26:40.602Z,6.1
2023-02-09T13:27:47.671Z,6.1
2023-02-09T13:28:54.766Z,6.1
2023-02-09T13:30:01.904Z,6.2
2023-02-09T13:31:09.466Z,6.2
2023-02-09T13:32:15.536Z,6.3
2023-02-09T13:33:22.657Z,6.3
2023-02-09T13:34:29.757Z,6.4
2023-02-09T13:35:36.893Z,6.4
2023-02-09T13:36:43.975Z,6.5
2023-02-09T13:37:50.585Z,6.4
2023-02-09T13:38:57.754Z,6.5
2023-02-09T13:40:04.770Z,6.6
2023-02-09T13:41:11.894Z,6.6
2023-02-09T13:42:18.987Z,6.7
2023-02-09T13:43:25.562Z,6.7
2023-02-09T13:44:32.682Z,6.6
2023-02-09T13:45:39.811Z,6.7
2023-02-09T13:46:48.288Z,6.7
2023-02-09T13:47:54.012Z,6.7
2023-02-09T13:49:00.632Z,6.7
2023-02-09T13:50:07.692Z,6.7
2023-02-09T13:51:14.788Z,6.7
2023-02-09T13:52:21.893Z,6.8
2023-02-09T13:53:29.030Z,6.8
2023-02-09T13:54:35.575Z,6.8
2023-02-09T13:55:45.876Z,6.8
2023-02-09T13:56:49.763Z,6.8
2023-02-09T13:57:56.949Z,6.8
2023-02-09T13:59:04.031Z,6.8
2023-02-09T14:00:10.652Z,6.8
2023-02-09T14:01:17.750Z,6.8
2023-02-09T14:02:24.900Z,6.8
2023-02-09T14:03:31.997Z,6.8
2023-02-09T14:04:38.545Z,6.8
2023-02-09T14:05:45.948Z,6.8
2023-02-09T14:06:52.696Z,6.8
2023-02-09T14:07:59.907Z,6.8
2023-02-09T14:09:06.910Z,6.8
2023-02-09T14:10:13.501Z,6.8
2023-02-09T14:11:22.974Z,6.8
2023-02-09T14:12:27.755Z,6.8
2023-02-09T14:13:34.858Z,6.8
2023-02-09T14:14:41.948Z,6.8
2023-02-09T14:16:55.617Z,6.8
2023-02-09T14:18:02.733Z,6.8
2023-02-09T14:19:09.998Z,6.8
2023-02-09T14:20:17.052Z,6.8
2023-02-09T14:22:30.634Z,6.9
2023-02-09T14:23:37.796Z,6.8
2023-02-09T14:24:44.839Z,6.9
2023-02-09T14:25:51.931Z,6.8
2023-02-09T14:26:58.486Z,6.8
2023-02-09T14:28:05.680Z,6.9
2023-02-09T14:29:12.728Z,6.9
2023-02-09T14:30:19.836Z,6.9
2023-02-09T14:31:26.932Z,6.9
2023-02-09T14:32:33.748Z,6.9
2023-02-09T14:33:40.690Z,7
2023-02-09T14:34:48.330Z,7
2023-02-09T14:35:54.834Z,7
2023-02-09T14:37:01.948Z,7
2023-02-09T14:38:08.604Z,7
2023-02-09T14:39:15.645Z,7
2023-02-09T14:40:22.728Z,7.1
2023-02-09T14:41:29.893Z,7
2023-02-09T14:42:36.959Z,7
2023-02-09T14:43:43.650Z,7
2023-02-09T14:44:50.679Z,7
2023-02-09T14:45:57.830Z,7
2023-02-09T14:47:04.868Z,7
2023-02-09T14:48:11.981Z,7
2023-02-09T14:49:18.512Z,7.1
2023-02-09T14:50:25.619Z,7.1
2023-02-09T14:51:32.737Z,7.1
2023-02-09T14:52:39.979Z,7.1
2023-02-09T14:53:47.033Z,7
2023-02-09T14:54:53.558Z,7
2023-02-09T14:56:00.718Z,7.1
2023-02-09T14:57:07.824Z,7.1
2023-02-09T14:58:14.854Z,7
2023-02-09T14:59:21.969Z,7
2023-02-09T15:00:28.573Z,7
2023-02-09T15:01:35.703Z,7
2023-02-09T15:02:42.830Z,7
2023-02-09T15:03:49.989Z,7
2023-02-09T15:04:57.002Z,7.1
2023-02-09T15:06:03.605Z,7
2023-02-09T15:07:10.855Z,7
2023-02-09T15:08:17.788Z,7
2023-02-09T15:09:24.901Z,7
2023-02-09T15:10:31.996Z,7
2023-02-09T15:11:42.689Z,6.9
2023-02-09T15:12:45.674Z,6.9
2023-02-09T15:13:52.339Z,6.8
2023-02-09T15:14:59.936Z,6.7
2023-02-09T15:16:06.600Z,6.5
2023-02-09T15:17:13.599Z,6.4
2023-02-09T15:18:20.856Z,6.3
2023-02-09T15:20:34.977Z,6.2
2023-02-09T15:21:42.072Z,6.2
2023-02-09T15:22:48.630Z,6.1
2023-02-09T15:23:55.749Z,6.1
2023-02-09T15:25:03.013Z,6.1
2023-02-09T15:26:09.943Z,6.1
2023-02-09T15:27:17.042Z,6.1
2023-02-09T15:28:23.679Z,6.1
2023-02-09T15:29:30.736Z,6.1
2023-02-09T15:30:37.808Z,6.1
2023-02-09T15:31:45.068Z,6.1
2023-02-09T15:32:52.002Z,6.1
2023-02-09T15:33:58.677Z,6.1
2023-02-09T15:35:05.709Z,6.1
2023-02-09T15:36:12.807Z,6.1
2023-02-09T15:37:19.932Z,6.2
2023-02-09T15:38:27.753Z,6.2
2023-02-09T15:39:33.668Z,6.2
2023-02-09T15:40:40.724Z,6.2
2023-02-09T15:41:47.826Z,6.3
2023-02-09T15:42:54.980Z,6.3
2023-02-09T15:44:02.049Z,6.3
2023-02-09T15:45:08.741Z,6.3
2023-02-09T15:46:15.776Z,6.3
2023-02-09T15:47:22.848Z,6.3
2023-02-09T15:48:29.997Z,6.3
2023-02-09T15:50:44.042Z,6.3
2023-02-09T15:51:50.813Z,6.3
2023-02-09T15:52:57.885Z,6.3